createdAt,value
2022-11-28T00:01:23.379Z,95.09
2022-11-28T00:03:50.557Z,95.07
2022-11-28T00:06:18.059Z,95.08
2022-11-28T00:08:45.590Z,95.08
2022-11-28T00:11:15.790Z,95.06
2022-11-28T00:13:43.517Z,95.04
2022-11-28T00:16:15.083Z,95.03
2022-11-28T00:18:42.070Z,95.02
2022-11-28T00:21:11.862Z,95.00
2022-11-28T00:23:39.193Z,94.97
2022-11-28T00:26:12.792Z,94.96
2022-11-28T00:28:39.982Z,94.96
2022-11-28T00:31:12.667Z,94.94
2022-11-28T00:33:39.357Z,94.92
2022-11-28T00:36:06.356Z,94.92
2022-11-28T00:38:33.223Z,94.93
2022-11-28T00:41:07.074Z,94.96
2022-11-28T00:43:34.431Z,94.95
2022-11-28T00:46:01.637Z,94.92
2022-11-28T00:48:28.390Z,94.94
2022-11-28T00:50:55.984Z,94.94
2022-11-28T00:53:22.626Z,94.94
2022-11-28T00:55:49.222Z,94.95
2022-11-28T00:58:16.114Z,94.96
2022-11-28T01:00:42.828Z,94.96
2022-11-28T01:03:09.487Z,94.95
2022-11-28T01:05:41.645Z,94.93
2022-11-28T01:08:08.324Z,94.94
2022-11-28T01:10:38.546Z,94.94
2022-11-28T01:13:05.517Z,94.93
2022-11-28T01:15:32.162Z,94.92
2022-11-28T01:17:59.734Z,94.91
2022-11-28T01:20:26.622Z,94.92
2022-11-28T01:22:53.349Z,94.90
2022-11-28T01:25:19.975Z,94.89
2022-11-28T01:27:46.926Z,94.85
2022-11-28T01:30:13.660Z,94.84
2022-11-28T01:32:40.279Z,94.83
2022-11-28T01:35:07.450Z,94.83
2022-11-28T01:37:34.064Z,94.83
2022-11-28T01:40:00.783Z,94.81
2022-11-28T01:42:27.692Z,94.78
2022-11-28T01:44:54.331Z,94.78
2022-11-28T01:47:25.683Z,94.77
2022-11-28T01:49:54.120Z,94.73
2022-11-28T01:52:22.005Z,94.70
2022-11-28T01:54:53.105Z,94.69
2022-11-28T01:57:23.875Z,94.66
2022-11-28T02:00:12.688Z,94.65
2022-11-28T02:02:46.393Z,94.65
2022-11-28T02:05:14.695Z,94.65
2022-11-28T02:07:43.160Z,94.63
2022-11-28T02:10:14.945Z,94.62
2022-11-28T02:12:57.502Z,94.58
2022-11-28T02:16:00.598Z,94.63
2022-11-28T02:18:50.623Z,94.56
2022-11-28T02:21:29.612Z,94.53
2022-11-28T02:24:02.558Z,94.48
2022-11-28T02:26:53.334Z,94.45
2022-11-28T02:32:30.673Z,94.39
2022-11-28T02:35:09.940Z,94.33
2022-11-28T02:37:39.205Z,94.26
2022-11-28T02:40:24.897Z,94.22
2022-11-28T02:43:16.614Z,94.18
2022-11-28T02:45:57.855Z,94.15
2022-11-28T02:48:35.977Z,94.13
2022-11-28T02:51:08.068Z,94.10
2022-11-28T02:53:37.197Z,94.07
2022-11-28T02:56:05.033Z,94.05
2022-11-28T02:58:31.622Z,94.04
2022-11-28T03:00:58.409Z,94.02
2022-11-28T03:03:48.463Z,94.01
2022-11-28T03:06:42.769Z,94.00
2022-11-28T03:09:29.822Z,93.97
2022-11-28T03:12:15.862Z,93.98
2022-11-28T03:14:51.022Z,93.93
2022-11-28T03:17:31.968Z,93.92
2022-11-28T03:20:04.742Z,93.89
2022-11-28T03:23:01.446Z,93.88
2022-11-28T03:25:47.698Z,93.84
2022-11-28T03:28:30.903Z,93.81
2022-11-28T03:31:18.515Z,93.75
2022-11-28T03:33:51.573Z,93.74
2022-11-28T03:36:24.700Z,93.72
2022-11-28T03:38:58.307Z,93.70
2022-11-28T03:41:33.281Z,93.71
2022-11-28T03:44:02.058Z,93.69
2022-11-28T03:46:36.913Z,93.67
2022-11-28T03:49:07.609Z,93.66
2022-11-28T03:51:48.703Z,93.64
2022-11-28T03:54:24.769Z,93.63
2022-11-28T03:57:09.344Z,93.61
2022-11-28T03:59:39.911Z,93.58
2022-11-28T04:02:37.273Z,93.58
2022-11-28T04:05:18.864Z,93.56
2022-11-28T04:07:58.404Z,93.55
2022-11-28T04:10:41.942Z,93.55
2022-11-28T04:13:18.718Z,93.54
2022-11-28T04:15:58.526Z,93.52
2022-11-28T04:18:26.904Z,93.51
2022-11-28T04:21:01.702Z,93.51
2022-11-28T04:23:30.498Z,93.46
2022-11-28T04:26:03.435Z,93.46
2022-11-28T04:28:33.877Z,93.45
2022-11-28T04:31:04.475Z,93.40
2022-11-28T04:33:35.758Z,93.39
2022-11-28T04:36:05.285Z,93.38
2022-11-28T04:38:34.099Z,93.36
2022-11-28T04:41:04.389Z,93.31
2022-11-28T04:43:42.150Z,93.29
2022-11-28T04:46:18.293Z,93.25
2022-11-28T04:48:45.546Z,93.24
2022-11-28T04:51:27.571Z,93.22
2022-11-28T04:54:15.012Z,93.15
2022-11-28T04:56:50.565Z,93.22
2022-11-28T04:59:19.499Z,93.16
2022-11-28T05:01:48.406Z,93.15
2022-11-28T05:04:17.207Z,93.10
2022-11-28T05:06:44.132Z,93.08
2022-11-28T05:09:13.993Z,93.06
2022-11-28T05:11:40.672Z,93.06
2022-11-28T05:14:07.680Z,93.05
2022-11-28T05:16:35.228Z,93.02
2022-11-28T05:19:01.974Z,92.99
2022-11-28T05:21:28.940Z,92.97
2022-11-28T05:23:55.880Z,92.96
2022-11-28T05:26:22.865Z,92.93
2022-11-28T05:28:51.104Z,92.93
2022-11-28T05:31:20.604Z,92.90
2022-11-28T05:33:47.358Z,92.89
2022-11-28T05:36:15.426Z,92.88
2022-11-28T05:38:42.971Z,92.91
2022-11-28T05:41:10.525Z,92.89
2022-11-28T05:43:37.433Z,92.88
2022-11-28T05:46:06.023Z,92.90
2022-11-28T05:48:32.755Z,92.91
2022-11-28T05:50:59.676Z,92.92
2022-11-28T05:53:26.376Z,92.90
2022-11-28T05:55:53.092Z,92.89
2022-11-28T05:58:19.989Z,92.89
2022-11-28T06:00:46.667Z,92.87
2022-11-28T06:03:13.545Z,92.87
2022-11-28T06:05:43.725Z,92.85
2022-11-28T06:08:14.249Z,92.83
2022-11-28T06:10:41.514Z,92.78
2022-11-28T06:13:08.515Z,92.76
2022-11-28T06:15:38.364Z,92.72
2022-11-28T06:18:05.899Z,92.72
2022-11-28T06:20:35.186Z,92.72
2022-11-28T06:23:01.910Z,92.70
2022-11-28T06:25:29.331Z,92.68
2022-11-28T06:27:55.935Z,92.68
2022-11-28T06:30:22.591Z,92.65
2022-11-28T06:32:49.469Z,92.66
2022-11-28T06:35:16.078Z,92.67
2022-11-28T06:37:42.705Z,92.66
2022-11-28T06:40:09.986Z,92.68
2022-11-28T06:42:36.892Z,92.67
2022-11-28T06:45:04.730Z,92.65
2022-11-28T06:47:32.493Z,92.65
2022-11-28T06:49:59.117Z,92.65
2022-11-28T06:52:26.095Z,92.61
2022-11-28T06:54:53.058Z,92.60
2022-11-28T06:57:19.670Z,92.59
2022-11-28T06:59:48.023Z,92.55
2022-11-28T07:02:15.028Z,92.52
2022-11-28T07:04:41.756Z,92.52
2022-11-28T07:07:10.636Z,92.53
2022-11-28T07:09:39.481Z,92.52
2022-11-28T07:12:06.182Z,92.51
2022-11-28T07:14:33.846Z,92.44
2022-11-28T07:17:01.043Z,92.43
2022-11-28T07:19:28.325Z,92.42
2022-11-28T07:21:55.070Z,92.39
2022-11-28T07:24:21.926Z,92.37
2022-11-28T07:26:48.544Z,92.34
2022-11-28T13:39:53.265Z,92.79
2022-11-28T13:43:02.269Z,92.79
2022-11-28T13:45:43.498Z,93.37
2022-11-28T13:49:05.971Z,93.35
2022-11-28T13:51:32.304Z,93.28
2022-11-28T13:54:32.048Z,93.27
2022-11-28T13:57:15.179Z,93.18
2022-11-28T13:59:57.714Z,93.12
2022-11-28T14:02:33.116Z,93.09
2022-11-28T14:05:00.543Z,93.06
2022-11-28T14:07:33.349Z,93.04
2022-11-28T14:10:56.615Z,93.02
2022-11-28T14:13:40.463Z,93.00
2022-11-28T14:16:26.538Z,92.99
2022-11-28T14:19:10.744Z,92.99
2022-11-28T14:21:57.661Z,93.00
2022-11-28T14:24:55.417Z,93.00
2022-11-28T14:27:30.393Z,92.97
2022-11-28T14:29:59.104Z,92.97
2022-11-28T14:32:36.704Z,92.98
2022-11-28T14:35:07.046Z,92.99
2022-11-28T14:37:56.082Z,92.99
2022-11-28T14:41:05.772Z,92.98
2022-11-28T14:43:33.893Z,92.98
2022-11-28T14:46:23.293Z,93.01
2022-11-28T14:48:59.684Z,93.02
2022-11-28T14:51:45.685Z,93.04
2022-11-28T14:54:35.854Z,93.04
2022-11-28T14:57:13.303Z,93.04
2022-11-28T14:59:40.489Z,93.01
2022-11-28T15:02:10.635Z,93.05
2022-11-28T15:04:59.071Z,93.07
2022-11-28T15:08:09.077Z,93.07
2022-11-28T15:10:47.787Z,93.07
2022-11-28T15:13:45.306Z,93.08
2022-11-28T15:16:15.170Z,93.07
2022-11-28T15:18:49.320Z,93.09
2022-11-28T15:21:18.023Z,93.11
2022-11-28T15:23:46.931Z,93.14
2022-11-28T15:26:30.054Z,93.14
2022-11-28T15:29:30.407Z,93.14
2022-11-28T15:31:59.050Z,93.17
2022-11-28T15:34:29.868Z,93.15
2022-11-28T15:37:03.608Z,93.15
2022-11-28T15:39:39.907Z,93.16
2022-11-28T15:42:23.030Z,93.15
2022-11-28T15:44:59.556Z,93.17
2022-11-28T15:47:28.014Z,93.20
2022-11-28T15:50:17.027Z,93.21
2022-11-28T15:53:00.620Z,93.24
2022-11-28T15:55:31.857Z,93.27
2022-11-28T15:58:19.067Z,93.31
2022-11-28T16:00:53.973Z,93.32
2022-11-28T16:03:25.230Z,93.35
2022-11-28T16:05:54.468Z,93.36
2022-11-28T16:08:30.194Z,93.37
2022-11-28T16:10:58.632Z,93.39
2022-11-28T16:13:25.724Z,93.42
2022-11-28T16:15:56.026Z,93.42
2022-11-28T16:18:24.589Z,93.44
2022-11-28T16:20:51.768Z,93.44
2022-11-28T16:23:25.805Z,93.47
2022-11-28T16:26:19.964Z,93.48
2022-11-28T16:28:59.862Z,93.47
2022-11-28T16:31:28.623Z,93.48
2022-11-28T16:33:55.570Z,93.47
2022-11-28T16:36:37.760Z,93.49
2022-11-28T16:39:16.553Z,93.50
2022-11-28T16:42:06.209Z,93.53
2022-11-28T16:44:34.038Z,93.50
2022-11-28T16:47:01.225Z,93.50
2022-11-28T16:50:04.896Z,93.52
2022-11-28T16:52:31.790Z,93.52
2022-11-28T16:54:58.804Z,93.53
2022-11-28T16:57:44.155Z,93.53
2022-11-28T17:00:11.501Z,93.56
2022-11-28T17:02:38.729Z,93.60
2022-11-28T17:05:05.775Z,93.60
2022-11-28T17:07:32.971Z,93.61
2022-11-28T17:09:59.708Z,93.61
2022-11-28T17:12:28.996Z,93.64
2022-11-28T17:14:56.324Z,93.65
2022-11-28T17:17:23.562Z,93.65
2022-11-28T17:19:50.910Z,93.66
2022-11-28T17:22:21.976Z,93.64
2022-11-28T17:24:50.463Z,93.64
2022-11-28T17:27:17.378Z,93.64
2022-11-28T17:29:44.607Z,93.67
2022-11-28T17:32:12.453Z,93.69
2022-11-28T17:34:40.269Z,93.74
2022-11-28T17:37:07.901Z,93.75
2022-11-28T17:39:34.605Z,93.77
2022-11-28T17:42:01.493Z,93.76
2022-11-28T17:44:34.543Z,93.77
2022-11-28T17:47:02.400Z,93.78
2022-11-28T17:49:33.755Z,93.79
2022-11-28T17:52:00.480Z,93.78
2022-11-28T17:54:28.752Z,93.78
2022-11-28T17:56:57.488Z,93.80
2022-11-28T17:59:24.494Z,93.83
2022-11-28T18:01:51.642Z,93.85
2022-11-28T18:04:23.156Z,93.86
2022-11-28T18:06:51.955Z,93.87
2022-11-28T18:09:18.650Z,93.90
2022-11-28T18:11:48.551Z,93.92
2022-11-28T18:14:19.199Z,93.94
2022-11-28T18:16:47.086Z,93.95
2022-11-28T18:19:13.826Z,93.96
2022-11-28T18:21:40.492Z,93.97
2022-11-28T18:24:07.742Z,94.00
2022-11-28T18:26:35.589Z,94.02
2022-11-28T18:29:02.238Z,94.05
2022-11-28T18:31:30.122Z,94.06
2022-11-28T18:34:02.358Z,94.08
2022-11-28T18:36:34.559Z,94.09
2022-11-28T18:39:06.531Z,94.12
2022-11-28T18:41:33.931Z,94.13
2022-11-28T18:44:03.709Z,94.16
2022-11-28T18:46:32.324Z,94.17
2022-11-28T18:48:59.508Z,94.15
2022-11-28T18:51:29.541Z,94.17
2022-11-28T18:53:57.490Z,94.17
2022-11-28T18:56:25.865Z,94.17
2022-11-28T18:58:56.291Z,94.18
2022-11-28T19:01:30.368Z,94.21
2022-11-28T19:04:00.395Z,94.24
2022-11-28T19:06:27.721Z,94.25
2022-11-28T19:09:00.455Z,94.28
2022-11-28T19:11:28.740Z,94.28
2022-11-28T19:13:56.277Z,94.35
2022-11-28T19:16:30.880Z,94.35
2022-11-28T19:18:58.882Z,94.36
2022-11-28T19:21:28.082Z,94.38
2022-11-28T19:23:56.805Z,94.41
2022-11-28T19:26:27.457Z,94.44
2022-11-28T19:28:55.347Z,94.46
2022-11-28T19:31:26.768Z,94.49
2022-11-28T19:34:15.269Z,94.51
2022-11-28T19:36:45.064Z,94.54
2022-11-28T19:39:22.250Z,94.56
2022-11-28T19:41:49.906Z,94.58
2022-11-28T19:44:18.417Z,94.59
2022-11-28T19:46:46.048Z,94.60
2022-11-28T19:49:18.070Z,94.61
2022-11-28T19:51:45.897Z,94.64
2022-11-28T19:54:12.563Z,94.68
2022-11-28T19:56:39.385Z,94.70
2022-11-28T19:59:06.602Z,94.71
2022-11-28T20:01:34.232Z,94.71
2022-11-28T20:04:01.413Z,94.75
2022-11-28T20:06:30.611Z,94.77
2022-11-28T20:09:10.183Z,94.78
2022-11-28T20:11:38.600Z,94.79
2022-11-28T20:14:08.078Z,94.80
2022-11-28T20:16:36.504Z,94.82
2022-11-28T20:19:04.614Z,94.82
2022-11-28T20:21:33.179Z,94.82
2022-11-28T20:24:04.538Z,94.84
2022-11-28T20:26:42.002Z,94.83
2022-11-28T20:29:11.936Z,94.85
2022-11-28T20:31:45.406Z,94.84
2022-11-28T20:34:16.183Z,94.87
2022-11-28T20:36:43.758Z,94.89
2022-11-28T20:39:12.498Z,94.92
2022-11-28T20:41:39.598Z,94.94
2022-11-28T20:44:06.799Z,94.98
2022-11-28T20:46:35.466Z,95.00
2022-11-28T20:49:05.557Z,95.02
2022-11-28T20:51:34.960Z,95.06
2022-11-28T20:54:02.892Z,95.08
2022-11-28T20:56:31.889Z,95.11
2022-11-28T20:59:00.766Z,95.14
2022-11-28T21:01:33.259Z,95.18
2022-11-28T21:04:04.493Z,95.19
2022-11-28T21:06:32.709Z,95.20
2022-11-28T21:08:59.398Z,95.21
2022-11-28T21:11:55.098Z,95.24
2022-11-28T21:14:15.578Z,95.25
2022-11-28T21:16:42.665Z,95.25
2022-11-28T21:19:09.765Z,95.26
2022-11-28T21:21:39.509Z,95.27
2022-11-28T21:24:12.492Z,95.28
2022-11-28T21:26:43.141Z,95.29
2022-11-28T21:29:13.063Z,95.31
2022-11-28T21:31:43.558Z,95.34
2022-11-28T21:34:16.644Z,95.36
2022-11-28T21:36:44.157Z,95.38
2022-11-28T21:39:14.434Z,95.40
2022-11-28T21:41:41.093Z,95.42
2022-11-28T21:44:08.352Z,95.44
2022-11-28T21:46:35.071Z,95.45
2022-11-28T21:49:01.962Z,95.49
2022-11-28T21:51:29.481Z,95.52
2022-11-28T21:53:59.110Z,95.54
2022-11-28T21:56:26.335Z,95.56
2022-11-28T21:58:53.791Z,95.58
2022-11-28T22:01:21.302Z,95.60
2022-11-28T22:03:49.179Z,95.63
2022-11-28T22:06:21.039Z,95.64
2022-11-28T22:08:48.764Z,95.67
2022-11-28T22:11:15.612Z,95.69
2022-11-28T22:13:45.805Z,95.71
2022-11-28T22:16:24.640Z,95.75
2022-11-28T22:18:53.231Z,95.77
2022-11-28T22:24:08.254Z,95.81
2022-11-28T22:26:35.748Z,95.81
2022-11-28T22:31:31.900Z,95.85
2022-11-28T22:33:59.047Z,95.87
2022-11-28T22:36:25.704Z,95.89
2022-11-28T22:38:57.712Z,95.91
2022-11-28T22:41:28.869Z,95.95
2022-11-28T22:44:00.571Z,95.96
2022-11-28T22:46:29.654Z,95.99
2022-11-28T22:48:59.715Z,96.00
2022-11-28T22:51:27.298Z,96.02
2022-11-28T22:53:57.647Z,96.04
2022-11-28T22:56:25.691Z,96.06
2022-11-28T22:58:52.793Z,96.10
2022-11-28T23:01:23.961Z,96.12
2022-11-28T23:03:51.618Z,96.14
2022-11-28T23:06:21.446Z,96.15
2022-11-28T23:08:52.792Z,96.17
2022-11-28T23:11:22.429Z,96.19
2022-11-28T23:13:50.965Z,96.22
2022-11-28T23:16:19.304Z,96.24
2022-11-28T23:18:49.192Z,96.25
2022-11-28T23:21:18.388Z,96.27
2022-11-28T23:23:46.001Z,96.28
2022-11-28T23:26:15.853Z,96.31
2022-11-28T23:28:43.309Z,96.32
2022-11-28T23:31:11.728Z,96.33
2022-11-28T23:33:39.361Z,96.32
2022-11-28T23:36:15.869Z,96.34
2022-11-28T23:38:44.265Z,96.34
2022-11-28T23:41:11.655Z,96.36
2022-11-28T23:43:38.825Z,96.34
2022-11-28T23:46:06.536Z,96.33
2022-11-28T23:48:33.882Z,96.33
2022-11-28T23:51:00.627Z,96.33
2022-11-28T23:53:27.373Z,96.34
2022-11-28T23:55:54.315Z,96.33
2022-11-28T23:58:21.103Z,96.34
